Time,TemperatureF,DewpointF,PressureIn,WindDirection,WindDirectionDegrees,WindSpeedMPH,WindSpeedGustMPH,Humidity,HourlyPrecipIn,Conditions,Clouds,dailyrainin,SoftwareType,DateUTC
2013-02-04 00:00:00,15.4,2.6,29.96,West,267,7.2,7.2,56,0.00,,---,0.00,VWS V14.01,2013-02-04 05:00:00,
2013-02-04 00:01:00,15.4,2.6,29.96,West,267,5.4,6.3,56,0.00,,---,0.00,VWS V14.01,2013-02-04 05:01:00,
2013-02-04 00:03:00,15.4,2.6,29.96,West,266,5.4,5.4,56,0.00,,---,0.00,VWS V14.01,2013-02-04 05:03:00,
2013-02-04 00:08:00,15.4,2.6,29.96,WSW,251,6.3,7.2,56,0.00,,---,0.00,VWS V14.01,2013-02-04 05:08:00,
2013-02-04 00:13:00,15.4,2.6,29.96,WSW,246,11.6,12.5,56,0.00,,---,0.00,VWS V14.01,2013-02-04 05:13:00,
2013-02-04 00:18:00,15.4,2.6,29.96,West,262,6.3,7.2,56,0.00,,---,0.00,VWS V14.01,2013-02-04 05:18:00,
2013-02-04 00:23:00,15.4,2.6,29.96,West,262,0.0,0.0,56,0.00,,---,0.00,VWS V14.01,2013-02-04 05:23:00,
2013-02-04 00:28:00,15.4,2.6,29.96,WSW,252,5.4,6.3,56,0.00,,---,0.00,VWS V14.01,2013-02-04 05:28:00,
2013-02-04 00:33:00,15.3,2.4,29.96,SW,230,6.3,9.8,56,0.00,,---,0.00,VWS V14.01,2013-02-04 05:33:00,
2013-02-04 00:39:00,15.3,2.4,29.96,SSW,198,0.0,7.2,56,0.00,,---,0.00,VWS V14.01,2013-02-04 05:39:00,
2013-02-04 00:44:00,15.3,2.4,29.96,WSW,245,4.5,11.6,56,0.00,,---,0.00,VWS V14.01,2013-02-04 05:44:00,
2013-02-04 00:49:00,15.3,2.4,29.96,WSW,250,0.0,0.0,56,0.00,,---,0.00,VWS V14.01,2013-02-04 05:49:00,
2013-02-04 00:54:00,15.3,2.4,29.99,WSW,248,6.3,6.3,56,0.00,,---,0.00,VWS V14.01,2013-02-04 05:54:00,
2013-02-04 00:59:00,15.1,2.2,29.99,West,262,0.0,0.0,56,0.00,,---,0.00,VWS V14.01,2013-02-04 05:59:00,
2013-02-04 01:04:00,15.1,2.2,29.99,WSW,258,0.0,0.0,56,0.00,,---,0.00,VWS V14.01,2013-02-04 06:04:00,
2013-02-04 01:09:00,15.1,2.6,29.99,SSW,197,5.4,5.4,57,0.00,,---,0.00,VWS V14.01,2013-02-04 06:09:00,
2013-02-04 01:14:00,15.1,2.6,29.99,SW,232,0.0,9.8,57,0.00,,---,0.00,VWS V14.01,2013-02-04 06:14:00,
2013-02-04 01:19:00,15.1,2.6,29.99,West,279,11.6,11.6,57,0.00,,---,0.00,VWS V14.01,2013-02-04 06:19:00,
2013-02-04 01:24:00,15.1,3.0,29.99,WSW,252,5.4,7.2,58,0.00,,---,0.00,VWS V14.01,2013-02-04 06:24:00,
2013-02-04 01:29:00,15.1,3.3,29.99,WSW,240,4.5,6.3,59,0.00,,---,0.00,VWS V14.01,2013-02-04 06:29:00,
2013-02-04 01:34:00,15.1,3.3,29.99,WSW,249,4.5,6.3,59,0.00,,---,0.00,VWS V14.01,2013-02-04 06:34:00,
2013-02-04 01:39:00,15.1,3.7,29.99,West,265,0.0,0.0,60,0.00,,---,0.00,VWS V14.01,2013-02-04 06:39:00,
2013-02-04 01:44:00,15.1,3.7,29.99,West,266,5.4,5.4,60,0.00,,---,0.00,VWS V14.01,2013-02-04 06:44:00,
2013-02-04 01:50:00,15.1,3.7,29.99,WSW,250,8.1,10.7,60,0.00,,---,0.00,VWS V14.01,2013-02-04 06:50:00,
2013-02-04 01:55:00,15.1,3.7,29.99,WSW,246,0.0,0.0,60,0.00,,---,0.00,VWS V14.01,2013-02-04 06:55:00,
2013-02-04 02:00:00,15.1,4.1,29.99,WSW,244,0.0,0.0,61,0.00,,---,0.00,VWS V14.01,2013-02-04 07:00:00,
2013-02-04 02:05:00,14.9,3.9,29.99,WSW,244,4.5,4.5,61,0.00,,---,0.00,VWS V14.01,2013-02-04 07:05:00,
2013-02-04 02:10:00,14.9,3.9,29.99,WSW,244,0.0,0.0,61,0.00,,---,0.00,VWS V14.01,2013-02-04 07:10:00,
2013-02-04 02:15:00,14.9,4.2,29.99,SW,223,0.0,0.0,62,0.00,,---,0.00,VWS V14.01,2013-02-04 07:15:00,
2013-02-04 02:20:00,15.1,4.4,29.99,West,263,0.0,0.0,62,0.00,,---,0.00,VWS V14.01,2013-02-04 07:20:00,
2013-02-04 02:25:00,15.1,4.8,29.99,West,260,5.4,5.4,63,0.00,,---,0.00,VWS V14.01,2013-02-04 07:25:00,
2013-02-04 02:30:00,15.1,4.8,29.99,WSW,244,0.0,8.1,63,0.00,,---,0.00,VWS V14.01,2013-02-04 07:30:00,
2013-02-04 02:35:00,15.1,4.8,29.99,WSW,254,0.0,4.5,63,0.00,,---,0.00,VWS V14.01,2013-02-04 07:35:00,
2013-02-04 02:41:00,15.1,4.8,29.99,WSW,254,0.0,0.0,63,0.00,,---,0.00,VWS V14.01,2013-02-04 07:41:00,
2013-02-04 02:46:00,15.1,5.1,29.99,WSW,254,0.0,0.0,64,0.00,,---,0.00,VWS V14.01,2013-02-04 07:46:00,
2013-02-04 02:51:00,15.1,5.1,29.99,WSW,241,5.4,7.2,64,0.00,,---,0.00,VWS V14.01,2013-02-04 07:51:00,
2013-02-04 02:56:00,15.1,5.1,29.99,WSW,237,0.0,0.0,64,0.00,,---,0.00,VWS V14.01,2013-02-04 07:56:00,
2013-02-04 03:01:00,15.1,5.1,29.99,SW,218,8.1,8.1,64,0.00,,---,0.00,VWS V14.01,2013-02-04 08:01:00,
2013-02-04 03:06:00,15.1,5.4,29.99,SW,225,5.4,5.4,65,0.00,,---,0.00,VWS V14.01,2013-02-04 08:06:00,
2013-02-04 03:11:00,15.1,5.4,29.99,West,268,4.5,4.5,65,0.00,,---,0.00,VWS V14.01,2013-02-04 08:11:00,
2013-02-04 03:16:00,15.3,5.6,29.99,SW,224,4.5,7.2,65,0.00,,---,0.00,VWS V14.01,2013-02-04 08:16:00,
2013-02-04 03:21:00,15.3,5.9,29.99,WSW,256,4.5,6.3,66,0.00,,---,0.00,VWS V14.01,2013-02-04 08:21:00,
2013-02-04 03:26:00,15.3,5.9,29.99,SW,235,4.5,8.1,66,0.00,,---,0.00,VWS V14.01,2013-02-04 08:26:00,
2013-02-04 03:31:00,15.3,5.9,29.99,WSW,238,6.3,6.3,66,0.00,,---,0.00,VWS V14.01,2013-02-04 08:31:00,
2013-02-04 03:36:00,15.4,6.5,29.99,West,273,8.1,8.1,67,0.00,,---,0.00,VWS V14.01,2013-02-04 08:36:00,
2013-02-04 03:42:00,15.4,6.5,29.99,WSW,256,6.3,7.2,67,0.00,,---,0.00,VWS V14.01,2013-02-04 08:42:00,
2013-02-04 03:47:00,15.4,6.5,29.99,WSW,257,5.4,11.6,67,0.00,,---,0.00,VWS V14.01,2013-02-04 08:47:00,
2013-02-04 03:52:00,15.4,6.5,29.99,WSW,254,4.5,8.1,67,0.00,,---,0.00,VWS V14.01,2013-02-04 08:52:00,
2013-02-04 03:57:00,15.4,6.5,29.99,SW,236,0.0,0.0,67,0.00,,---,0.00,VWS V14.01,2013-02-04 08:57:00,
2013-02-04 04:02:00,15.6,6.6,29.99,WSW,238,0.0,6.3,67,0.00,,---,0.00,VWS V14.01,2013-02-04 09:02:00,
2013-02-04 04:07:00,15.6,6.6,29.99,WNW,282,10.7,10.7,67,0.00,,---,0.00,VWS V14.01,2013-02-04 09:07:00,
2013-02-04 04:12:00,15.6,6.6,29.99,West,278,0.0,0.0,67,0.00,,---,0.00,VWS V14.01,2013-02-04 09:12:00,
2013-02-04 04:17:00,15.6,6.6,29.99,West,278,0.0,0.0,67,0.00,,---,0.00,VWS V14.01,2013-02-04 09:17:00,
2013-02-04 04:22:00,15.6,6.6,29.99,West,278,6.3,6.3,67,0.00,,---,0.00,VWS V14.01,2013-02-04 09:22:00,
2013-02-04 04:27:00,15.6,6.6,29.99,West,278,0.0,0.0,67,0.00,,---,0.00,VWS V14.01,2013-02-04 09:27:00,
2013-02-04 04:32:00,15.6,6.6,29.99,WSW,253,4.5,8.1,67,0.00,,---,0.00,VWS V14.01,2013-02-04 09:32:00,
2013-02-04 04:37:00,15.6,6.6,29.99,WSW,253,0.0,0.0,67,0.00,,---,0.00,VWS V14.01,2013-02-04 09:37:00,
2013-02-04 04:42:00,15.6,6.6,29.99,WSW,254,0.0,0.0,67,0.00,,---,0.00,VWS V14.01,2013-02-04 09:42:00,
2013-02-04 04:47:00,15.6,6.6,29.99,WSW,253,0.0,4.5,67,0.00,,---,0.00,VWS V14.01,2013-02-04 09:47:00,
2013-02-04 04:52:00,15.6,6.6,29.96,WSW,253,0.0,0.0,67,0.00,,---,0.00,VWS V14.01,2013-02-04 09:52:00,
2013-02-04 04:57:00,15.6,6.6,29.96,WSW,253,0.0,0.0,67,0.00,,---,0.00,VWS V14.01,2013-02-04 09:57:00,
2013-02-04 05:03:00,15.6,6.6,29.96,WSW,253,0.0,0.0,67,0.00,,---,0.00,VWS V14.01,2013-02-04 10:03:00,
2013-02-04 05:08:00,15.6,6.6,29.96,WSW,253,0.0,0.0,67,0.00,,---,0.00,VWS V14.01,2013-02-04 10:08:00,
2013-02-04 05:13:00,15.4,6.5,29.96,WSW,253,0.0,0.0,67,0.00,,---,0.00,VWS V14.01,2013-02-04 10:13:00,
2013-02-04 05:18:00,15.4,6.5,29.96,WSW,253,0.0,0.0,67,0.00,,---,0.00,VWS V14.01,2013-02-04 10:18:00,
2013-02-04 05:23:00,15.4,6.5,29.96,WSW,253,0.0,0.0,67,0.00,,---,0.00,VWS V14.01,2013-02-04 10:23:00,
2013-02-04 05:28:00,15.4,6.5,29.96,WSW,254,0.0,0.0,67,0.00,,---,0.00,VWS V14.01,2013-02-04 10:28:00,
2013-02-04 05:33:00,15.4,6.5,29.96,WSW,254,0.0,0.0,67,0.00,,---,0.00,VWS V14.01,2013-02-04 10:33:00,
2013-02-04 05:38:00,15.4,6.5,29.96,WSW,253,0.0,0.0,67,0.00,,---,0.00,VWS V14.01,2013-02-04 10:38:00,
2013-02-04 05:43:00,15.4,6.5,29.96,WSW,253,0.0,0.0,67,0.00,,---,0.00,VWS V14.01,2013-02-04 10:43:00,
2013-02-04 05:48:00,15.4,6.5,29.96,WSW,253,0.0,0.0,67,0.00,,---,0.00,VWS V14.01,2013-02-04 10:48:00,
2013-02-04 05:53:00,15.3,6.3,29.96,WSW,253,0.0,0.0,67,0.00,,---,0.00,VWS V14.01,2013-02-04 10:53:00,
2013-02-04 05:58:00,15.3,6.3,29.96,WSW,253,0.0,0.0,67,0.00,,---,0.00,VWS V14.01,2013-02-04 10:58:00,
2013-02-04 06:03:00,15.3,6.3,29.96,WSW,253,0.0,0.0,67,0.00,,---,0.00,VWS V14.01,2013-02-04 11:03:00,
2013-02-04 06:08:00,15.3,6.6,29.96,WSW,254,0.0,0.0,68,0.00,,---,0.00,VWS V14.01,2013-02-04 11:08:00,
2013-02-04 06:13:00,15.3,6.6,29.96,WSW,253,0.0,0.0,68,0.00,,---,0.00,VWS V14.01,2013-02-04 11:13:00,
2013-02-04 06:18:00,15.3,6.6,29.96,WSW,253,0.0,0.0,68,0.00,,---,0.00,VWS V14.01,2013-02-04 11:18:00,
2013-02-04 06:23:00,15.4,6.8,29.96,WSW,253,0.0,0.0,68,0.00,,---,0.00,VWS V14.01,2013-02-04 11:23:00,
2013-02-04 06:28:00,15.4,6.8,29.96,WSW,253,0.0,0.0,68,0.00,,---,0.00,VWS V14.01,2013-02-04 11:28:00,
2013-02-04 06:33:00,15.4,6.8,29.96,WSW,253,0.0,0.0,68,0.00,,---,0.00,VWS V14.01,2013-02-04 11:33:00,
2013-02-04 06:39:00,15.3,6.6,29.96,WSW,253,0.0,0.0,68,0.00,,---,0.00,VWS V14.01,2013-02-04 11:39:00,
2013-02-04 06:44:00,15.3,6.6,29.96,WSW,253,0.0,0.0,68,0.00,,---,0.00,VWS V14.01,2013-02-04 11:44:00,
2013-02-04 06:49:00,15.3,6.6,29.96,WSW,253,0.0,0.0,68,0.00,,---,0.00,VWS V14.01,2013-02-04 11:49:00,
2013-02-04 06:54:00,15.3,6.9,29.96,WSW,254,0.0,0.0,69,0.00,,---,0.00,VWS V14.01,2013-02-04 11:54:00,
2013-02-04 06:59:00,15.3,6.9,29.96,WSW,253,0.0,0.0,69,0.00,,---,0.00,VWS V14.01,2013-02-04 11:59:00,
2013-02-04 07:04:00,15.3,6.9,29.96,WSW,253,0.0,0.0,69,0.00,,---,0.00,VWS V14.01,2013-02-04 12:04:00,
2013-02-04 07:09:00,15.3,6.9,29.96,WSW,253,0.0,0.0,69,0.00,,---,0.00,VWS V14.01,2013-02-04 12:09:00,
2013-02-04 07:14:00,15.3,6.9,29.96,WSW,253,0.0,0.0,69,0.00,,---,0.00,VWS V14.01,2013-02-04 12:14:00,
2013-02-04 07:19:00,15.4,7.1,29.96,WSW,253,0.0,0.0,69,0.00,,---,0.00,VWS V14.01,2013-02-04 12:19:00,
2013-02-04 07:24:00,15.4,7.1,29.96,WSW,253,0.0,0.0,69,0.00,,---,0.00,VWS V14.01,2013-02-04 12:24:00,
2013-02-04 07:29:00,15.4,7.1,29.96,WSW,253,0.0,0.0,69,0.00,,---,0.00,VWS V14.01,2013-02-04 12:29:00,
2013-02-04 07:34:00,15.4,7.1,29.96,WSW,253,0.0,0.0,69,0.00,,---,0.00,VWS V14.01,2013-02-04 12:34:00,
2013-02-04 07:39:00,15.4,7.1,29.96,WSW,254,0.0,0.0,69,0.00,,---,0.00,VWS V14.01,2013-02-04 12:39:00,
2013-02-04 07:44:00,15.4,7.4,29.96,WSW,253,0.0,0.0,70,0.00,,---,0.00,VWS V14.01,2013-02-04 12:44:00,
2013-02-04 07:49:00,15.4,7.4,29.96,WSW,253,0.0,0.0,70,0.00,,---,0.00,VWS V14.01,2013-02-04 12:49:00,
2013-02-04 07:54:00,15.4,7.4,29.96,WSW,253,0.0,0.0,70,0.00,,---,0.00,VWS V14.01,2013-02-04 12:54:00,
2013-02-04 07:59:00,15.6,7.6,29.96,WSW,253,0.0,0.0,70,0.00,,---,0.00,VWS V14.01,2013-02-04 12:59:00,
2013-02-04 08:05:00,15.8,7.8,29.96,WSW,253,0.0,0.0,70,0.00,,---,0.00,VWS V14.01,2013-02-04 13:05:00,
2013-02-04 08:10:00,15.8,7.8,29.96,WSW,253,0.0,0.0,70,0.00,,---,0.00,VWS V14.01,2013-02-04 13:10:00,
2013-02-04 08:15:00,15.8,7.8,29.96,WSW,253,4.5,4.5,70,0.00,,---,0.00,VWS V14.01,2013-02-04 13:15:00,
2013-02-04 08:20:00,15.8,7.8,29.96,WSW,253,0.0,0.0,70,0.00,,---,0.00,VWS V14.01,2013-02-04 13:20:00,
2013-02-04 08:25:00,15.8,8.1,29.96,WSW,253,0.0,0.0,71,0.00,,---,0.00,VWS V14.01,2013-02-04 13:25:00,
2013-02-04 08:30:00,16.0,7.9,29.96,WSW,253,0.0,0.0,70,0.00,,---,0.00,VWS V14.01,2013-02-04 13:30:00,
2013-02-04 08:35:00,16.0,7.9,29.96,WSW,253,0.0,0.0,70,0.00,,---,0.00,VWS V14.01,2013-02-04 13:35:00,
2013-02-04 08:40:00,16.0,8.2,29.96,WSW,253,0.0,0.0,71,0.00,,---,0.00,VWS V14.01,2013-02-04 13:40:00,
2013-02-04 08:45:00,16.0,8.2,29.96,WSW,253,0.0,0.0,71,0.00,,---,0.00,VWS V14.01,2013-02-04 13:45:00,
2013-02-04 08:50:00,16.2,8.4,29.96,WSW,253,0.0,0.0,71,0.00,,---,0.00,VWS V14.01,2013-02-04 13:50:00,
2013-02-04 08:55:00,16.2,8.4,29.96,WSW,253,0.0,0.0,71,0.00,,---,0.00,VWS V14.01,2013-02-04 13:55:00,
2013-02-04 09:00:00,16.2,8.4,29.96,WSW,253,0.0,0.0,71,0.00,,---,0.00,VWS V14.01,2013-02-04 14:00:00,
2013-02-04 09:05:00,16.2,8.4,29.96,WSW,253,0.0,0.0,71,0.00,,---,0.00,VWS V14.01,2013-02-04 14:05:00,
2013-02-04 09:11:00,16.2,8.4,29.96,WSW,253,0.0,0.0,71,0.00,,---,0.00,VWS V14.01,2013-02-04 14:11:00,
2013-02-04 09:16:00,16.2,8.4,29.96,WSW,253,0.0,0.0,71,0.00,,---,0.00,VWS V14.01,2013-02-04 14:16:00,
2013-02-04 09:21:00,16.3,8.9,29.96,WSW,253,0.0,0.0,72,0.00,,---,0.00,VWS V14.01,2013-02-04 14:21:00,
2013-02-04 09:26:00,16.5,9.1,29.96,WSW,253,0.0,0.0,72,0.00,,---,0.00,VWS V14.01,2013-02-04 14:26:00,
2013-02-04 09:31:00,16.7,9.3,29.96,WSW,254,0.0,0.0,72,0.00,,---,0.00,VWS V14.01,2013-02-04 14:31:00,
2013-02-04 09:36:00,16.7,9.3,29.96,WSW,253,0.0,0.0,72,0.00,,---,0.00,VWS V14.01,2013-02-04 14:36:00,
2013-02-04 09:41:00,16.9,9.4,29.96,WSW,253,0.0,0.0,72,0.00,,---,0.00,VWS V14.01,2013-02-04 14:41:00,
2013-02-04 09:46:00,16.9,9.4,29.96,WSW,254,0.0,0.0,72,0.00,,---,0.00,VWS V14.01,2013-02-04 14:46:00,
2013-02-04 09:51:00,17.1,9.9,29.96,WSW,254,0.0,0.0,73,0.00,,---,0.00,VWS V14.01,2013-02-04 14:51:00,
2013-02-04 09:56:00,17.1,9.9,29.96,WSW,253,0.0,0.0,73,0.00,,---,0.00,VWS V14.01,2013-02-04 14:56:00,
2013-02-04 10:01:00,17.1,9.9,29.96,WSW,253,0.0,0.0,73,0.00,,---,0.00,VWS V14.01,2013-02-04 15:01:00,
2013-02-04 10:07:00,17.2,10.1,29.96,WSW,253,0.0,0.0,73,0.00,,---,0.00,VWS V14.01,2013-02-04 15:07:00,
2013-02-04 10:11:00,17.4,10.3,29.96,WSW,253,0.0,0.0,73,0.00,,---,0.00,VWS V14.01,2013-02-04 15:11:00,
2013-02-04 10:16:00,17.4,10.3,29.96,WSW,253,0.0,5.4,73,0.00,,---,0.00,VWS V14.01,2013-02-04 15:16:00,
2013-02-04 10:21:00,17.6,10.4,29.96,WSW,252,0.0,0.0,73,0.00,,---,0.00,VWS V14.01,2013-02-04 15:21:00,
2013-02-04 10:27:00,17.6,10.4,29.96,WSW,253,0.0,0.0,73,0.00,,---,0.00,VWS V14.01,2013-02-04 15:27:00,
2013-02-04 10:32:00,17.8,10.6,29.96,WSW,253,0.0,0.0,73,0.00,,---,0.00,VWS V14.01,2013-02-04 15:32:00,
2013-02-04 10:37:00,18.0,10.8,29.96,WSW,253,0.0,0.0,73,0.00,,---,0.00,VWS V14.01,2013-02-04 15:37:00,
2013-02-04 10:42:00,18.1,11.0,29.96,WSW,253,0.0,0.0,73,0.00,,---,0.00,VWS V14.01,2013-02-04 15:42:00,
2013-02-04 10:47:00,18.5,11.6,29.96,ESE,108,0.0,0.0,74,0.00,,---,0.00,VWS V14.01,2013-02-04 15:47:00,
2013-02-04 10:52:00,18.5,11.6,29.96,ESE,108,0.0,0.0,74,0.00,,---,0.00,VWS V14.01,2013-02-04 15:52:00,
2013-02-04 10:57:00,18.5,11.6,29.96,ESE,108,0.0,0.0,74,0.00,,---,0.00,VWS V14.01,2013-02-04 15:57:00,
2013-02-04 11:02:00,18.7,11.8,29.96,ESE,108,0.0,0.0,74,0.00,,---,0.00,VWS V14.01,2013-02-04 16:02:00,
2013-02-04 11:07:00,18.5,11.6,29.96,ESE,109,0.0,0.0,74,0.00,,---,0.00,VWS V14.01,2013-02-04 16:07:00,
2013-02-04 11:12:00,18.5,11.6,29.96,ESE,109,0.0,0.0,74,0.00,,---,0.00,VWS V14.01,2013-02-04 16:12:00,
2013-02-04 11:17:00,18.7,11.8,29.96,ESE,108,0.0,0.0,74,0.00,,---,0.00,VWS V14.01,2013-02-04 16:17:00,
2013-02-04 11:23:00,19.0,12.1,29.93,ESE,115,0.0,0.0,74,0.00,,---,0.00,VWS V14.01,2013-02-04 16:23:00,
2013-02-04 11:28:00,19.2,12.6,29.93,ESE,115,0.0,0.0,75,0.00,,---,0.00,VWS V14.01,2013-02-04 16:28:00,
2013-02-04 11:33:00,19.4,12.8,29.93,ESE,115,0.0,0.0,75,0.00,,---,0.00,VWS V14.01,2013-02-04 16:33:00,
2013-02-04 11:38:00,19.6,13.0,29.93,ESE,118,0.0,0.0,75,0.00,,---,0.00,VWS V14.01,2013-02-04 16:38:00,
2013-02-04 11:43:00,19.9,13.3,29.93,ESE,117,0.0,0.0,75,0.00,,---,0.00,VWS V14.01,2013-02-04 16:43:00,
2013-02-04 11:48:00,19.9,13.3,29.93,ESE,115,0.0,0.0,75,0.00,,---,0.00,VWS V14.01,2013-02-04 16:48:00,
2013-02-04 11:53:00,20.1,13.5,29.93,ESE,115,0.0,0.0,75,0.00,,---,0.00,VWS V14.01,2013-02-04 16:53:00,
2013-02-04 11:58:00,20.3,13.7,29.93,ESE,115,0.0,0.0,75,0.00,,---,0.00,VWS V14.01,2013-02-04 16:58:00,
2013-02-04 12:03:00,20.5,13.8,29.93,ESE,115,0.0,0.0,75,0.00,,---,0.00,VWS V14.01,2013-02-04 17:03:00,
2013-02-04 12:08:00,20.5,13.8,29.93,ESE,115,0.0,0.0,75,0.00,,---,0.00,VWS V14.01,2013-02-04 17:08:00,
2013-02-04 12:13:00,20.7,14.0,29.93,ESE,116,0.0,0.0,75,0.00,,---,0.00,VWS V14.01,2013-02-04 17:13:00,
2013-02-04 12:18:00,20.7,14.0,29.93,ESE,115,0.0,0.0,75,0.00,,---,0.00,VWS V14.01,2013-02-04 17:18:00,
2013-02-04 12:24:00,20.7,14.0,29.93,SE,145,0.0,0.0,75,0.00,,---,0.00,VWS V14.01,2013-02-04 17:24:00,
2013-02-04 12:29:00,20.7,14.0,29.93,SSE,154,0.0,0.0,75,0.00,,---,0.00,VWS V14.01,2013-02-04 17:29:00,
2013-02-04 12:34:00,20.8,14.2,29.93,SSE,167,5.4,8.1,75,0.00,,---,0.00,VWS V14.01,2013-02-04 17:34:00,
2013-02-04 12:39:00,21.0,14.7,29.90,SE,129,5.4,6.3,76,0.00,,---,0.00,VWS V14.01,2013-02-04 17:39:00,
2013-02-04 12:44:00,21.0,14.7,29.90,ESE,116,0.0,0.0,76,0.00,,---,0.00,VWS V14.01,2013-02-04 17:44:00,
2013-02-04 12:49:00,21.4,14.7,29.90,ESE,116,0.0,0.0,75,0.00,,---,0.00,VWS V14.01,2013-02-04 17:49:00,
2013-02-04 12:54:00,21.6,14.9,29.90,ESE,116,5.4,5.4,75,0.00,,---,0.00,VWS V14.01,2013-02-04 17:54:00,
2013-02-04 12:59:00,21.7,15.1,29.90,ESE,118,0.0,0.0,75,0.00,,---,0.00,VWS V14.01,2013-02-04 17:59:00,
2013-02-04 13:04:00,21.9,15.2,29.90,ESE,112,6.3,6.3,75,0.00,,---,0.00,VWS V14.01,2013-02-04 18:04:00,
2013-02-04 13:09:00,21.9,15.2,29.90,ESE,112,0.0,6.3,75,0.00,,---,0.00,VWS V14.01,2013-02-04 18:09:00,
2013-02-04 13:14:00,22.1,15.4,29.90,ESE,113,0.0,5.4,75,0.00,,---,0.00,VWS V14.01,2013-02-04 18:14:00,
2013-02-04 13:19:00,22.3,15.6,29.90,SSE,153,6.3,6.3,75,0.00,,---,0.00,VWS V14.01,2013-02-04 18:19:00,
2013-02-04 13:24:00,22.3,15.6,29.90,SSE,151,4.5,5.4,75,0.00,,---,0.00,VWS V14.01,2013-02-04 18:24:00,
2013-02-04 13:29:00,22.3,15.6,29.90,SE,127,6.3,6.3,75,0.00,,---,0.00,VWS V14.01,2013-02-04 18:29:00,
2013-02-04 13:34:00,22.5,15.8,29.90,SE,129,0.0,0.0,75,0.00,,---,0.00,VWS V14.01,2013-02-04 18:34:00,
2013-02-04 13:39:00,22.6,15.9,29.90,ESE,122,5.4,6.3,75,0.00,,---,0.00,VWS V14.01,2013-02-04 18:39:00,
2013-02-04 13:44:00,22.5,15.4,29.90,SSE,151,0.0,0.0,74,0.00,,---,0.00,VWS V14.01,2013-02-04 18:44:00,
2013-02-04 13:49:00,22.3,15.3,29.90,SSE,151,0.0,0.0,74,0.00,,---,0.00,VWS V14.01,2013-02-04 18:49:00,
2013-02-04 13:54:00,22.3,15.3,29.90,SE,138,4.5,6.3,74,0.00,,---,0.00,VWS V14.01,2013-02-04 18:54:00,
2013-02-04 13:59:00,22.3,15.3,29.90,SE,127,0.0,0.0,74,0.00,,---,0.00,VWS V14.01,2013-02-04 18:59:00,
2013-02-04 14:04:00,22.5,15.4,29.90,East,99,5.4,6.3,74,0.00,,---,0.00,VWS V14.01,2013-02-04 19:04:00,
2013-02-04 14:10:00,22.8,15.8,29.87,NE,51,0.0,0.0,74,0.00,,---,0.00,VWS V14.01,2013-02-04 19:10:00,
2013-02-04 14:15:00,22.8,15.8,29.87,East,96,0.0,0.0,74,0.00,,---,0.00,VWS V14.01,2013-02-04 19:15:00,
2013-02-04 14:20:00,23.0,16.0,29.87,East,96,0.0,0.0,74,0.00,,---,0.00,VWS V14.01,2013-02-04 19:20:00,
2013-02-04 14:25:00,23.2,16.1,29.87,East,96,0.0,0.0,74,0.00,,---,0.00,VWS V14.01,2013-02-04 19:25:00,
2013-02-04 14:30:00,23.4,16.3,29.87,East,97,0.0,0.0,74,0.00,,---,0.00,VWS V14.01,2013-02-04 19:30:00,
2013-02-04 14:35:00,23.0,16.0,29.87,SE,141,0.0,0.0,74,0.00,,---,0.00,VWS V14.01,2013-02-04 19:35:00,
2013-02-04 14:40:00,22.8,15.8,29.87,SE,129,0.0,5.4,74,0.00,,---,0.00,VWS V14.01,2013-02-04 19:40:00,
2013-02-04 14:45:00,22.6,15.6,29.87,SSE,155,4.5,6.3,74,0.00,,---,0.00,VWS V14.01,2013-02-04 19:45:00,
2013-02-04 14:50:00,22.5,15.4,29.87,SSE,156,0.0,0.0,74,0.00,,---,0.00,VWS V14.01,2013-02-04 19:50:00,
2013-02-04 14:55:00,22.5,15.4,29.87,SSE,155,0.0,0.0,74,0.00,,---,0.00,VWS V14.01,2013-02-04 19:55:00,
2013-02-04 15:00:00,22.6,15.6,29.87,SSE,156,0.0,0.0,74,0.00,,---,0.00,VWS V14.01,2013-02-04 20:00:00,
2013-02-04 15:05:00,22.6,15.6,29.87,SSE,155,0.0,0.0,74,0.00,,---,0.00,VWS V14.01,2013-02-04 20:05:00,
2013-02-04 15:10:00,22.6,15.6,29.87,SSE,156,0.0,0.0,74,0.00,,---,0.00,VWS V14.01,2013-02-04 20:10:00,
2013-02-04 15:15:00,22.6,15.3,29.87,SSE,155,0.0,0.0,73,0.00,,---,0.00,VWS V14.01,2013-02-04 20:15:00,
2013-02-04 15:20:00,22.3,15.3,29.87,SSE,156,6.3,6.3,74,0.00,,---,0.00,VWS V14.01,2013-02-04 20:20:00,
2013-02-04 15:25:00,22.1,14.8,29.87,SSE,157,4.5,4.5,73,0.00,,---,0.00,VWS V14.01,2013-02-04 20:25:00,
2013-02-04 15:30:00,22.1,15.1,29.87,SSE,156,0.0,0.0,74,0.00,,---,0.00,VWS V14.01,2013-02-04 20:30:00,
2013-02-04 15:35:00,22.3,15.3,29.87,SSE,156,0.0,0.0,74,0.00,,---,0.00,VWS V14.01,2013-02-04 20:35:00,
2013-02-04 15:40:00,22.3,15.3,29.87,SSE,156,0.0,0.0,74,0.00,,---,0.00,VWS V14.01,2013-02-04 20:40:00,
2013-02-04 15:46:00,22.3,15.3,29.87,SSE,156,0.0,0.0,74,0.00,,---,0.00,VWS V14.01,2013-02-04 20:46:00,
2013-02-04 15:51:00,22.3,15.3,29.87,SSE,156,0.0,0.0,74,0.00,,---,0.00,VWS V14.01,2013-02-04 20:51:00,
2013-02-04 15:56:00,22.5,15.4,29.87,SSE,156,0.0,0.0,74,0.00,,---,0.00,VWS V14.01,2013-02-04 20:56:00,
2013-02-04 16:01:00,22.5,15.4,29.87,SSE,156,0.0,0.0,74,0.00,,---,0.00,VWS V14.01,2013-02-04 21:01:00,
2013-02-04 16:06:00,22.6,15.6,29.87,SSE,156,0.0,0.0,74,0.00,,---,0.00,VWS V14.01,2013-02-04 21:06:00,
2013-02-04 16:11:00,22.5,15.1,29.87,SSE,156,0.0,0.0,73,0.00,,---,0.00,VWS V14.01,2013-02-04 21:11:00,
2013-02-04 16:16:00,22.3,15.0,29.87,SSE,156,4.5,4.5,73,0.00,,---,0.00,VWS V14.01,2013-02-04 21:16:00,
2013-02-04 16:21:00,22.3,15.0,29.87,SSE,156,0.0,0.0,73,0.00,,---,0.00,VWS V14.01,2013-02-04 21:21:00,
2013-02-04 16:26:00,22.3,15.0,29.87,SSE,156,0.0,0.0,73,0.00,,---,0.00,VWS V14.01,2013-02-04 21:26:00,
2013-02-04 16:31:00,22.5,15.1,29.87,SSE,156,0.0,0.0,73,0.00,,---,0.00,VWS V14.01,2013-02-04 21:31:00,
2013-02-04 16:36:00,22.5,15.1,29.87,SSE,156,0.0,0.0,73,0.00,,---,0.00,VWS V14.01,2013-02-04 21:36:00,
2013-02-04 16:41:00,22.5,15.1,29.87,SSE,156,0.0,0.0,73,0.00,,---,0.00,VWS V14.01,2013-02-04 21:41:00,
2013-02-04 16:46:00,22.5,15.4,29.87,SSE,156,0.0,0.0,74,0.00,,---,0.00,VWS V14.01,2013-02-04 21:46:00,
2013-02-04 16:51:00,22.5,15.4,29.87,SSE,156,0.0,0.0,74,0.00,,---,0.00,VWS V14.01,2013-02-04 21:51:00,
2013-02-04 16:56:00,22.5,15.4,29.87,SSE,156,0.0,0.0,74,0.00,,---,0.00,VWS V14.01,2013-02-04 21:56:00,
2013-02-04 17:01:00,22.5,15.4,29.87,SSE,156,0.0,0.0,74,0.00,,---,0.00,VWS V14.01,2013-02-04 22:01:00,
2013-02-04 17:06:00,22.3,15.0,29.84,SSE,156,0.0,0.0,73,0.00,,---,0.00,VWS V14.01,2013-02-04 22:06:00,
2013-02-04 17:11:00,22.3,15.3,29.84,SSE,156,0.0,0.0,74,0.00,,---,0.00,VWS V14.01,2013-02-04 22:11:00,
2013-02-04 17:16:00,22.1,15.1,29.84,SSE,156,0.0,0.0,74,0.00,,---,0.00,VWS V14.01,2013-02-04 22:16:00,
2013-02-04 17:21:00,22.1,15.1,29.84,SSE,156,0.0,0.0,74,0.00,,---,0.00,VWS V14.01,2013-02-04 22:21:00,
2013-02-04 17:26:00,21.9,14.9,29.84,SSE,156,0.0,0.0,74,0.00,,---,0.00,VWS V14.01,2013-02-04 22:26:00,
2013-02-04 17:32:00,21.9,14.9,29.84,SSE,156,0.0,0.0,74,0.00,,---,0.00,VWS V14.01,2013-02-04 22:32:00,
2013-02-04 17:37:00,21.7,14.7,29.84,SSE,156,0.0,0.0,74,0.00,,---,0.00,VWS V14.01,2013-02-04 22:37:00,
2013-02-04 17:42:00,21.6,14.6,29.84,SSE,156,0.0,0.0,74,0.00,,---,0.00,VWS V14.01,2013-02-04 22:42:00,
2013-02-04 17:47:00,21.6,14.6,29.84,SSE,156,0.0,0.0,74,0.00,,---,0.00,VWS V14.01,2013-02-04 22:47:00,
2013-02-04 17:52:00,21.4,14.4,29.84,SSE,156,0.0,0.0,74,0.00,,---,0.00,VWS V14.01,2013-02-04 22:52:00,
2013-02-04 17:57:00,21.4,14.4,29.84,SSE,156,0.0,0.0,74,0.00,,---,0.00,VWS V14.01,2013-02-04 22:57:00,
2013-02-04 18:02:00,21.2,14.2,29.84,SSE,156,0.0,0.0,74,0.00,,---,0.00,VWS V14.01,2013-02-04 23:02:00,
2013-02-04 18:07:00,21.2,14.2,29.84,SSE,156,0.0,0.0,74,0.00,,---,0.00,VWS V14.01,2013-02-04 23:07:00,
2013-02-04 18:12:00,21.2,14.2,29.84,SSE,156,0.0,0.0,74,0.00,,---,0.00,VWS V14.01,2013-02-04 23:12:00,
2013-02-04 18:17:00,21.2,14.2,29.84,SSE,156,0.0,0.0,74,0.00,,---,0.00,VWS V14.01,2013-02-04 23:17:00,
2013-02-04 18:22:00,21.2,14.5,29.84,SSE,156,0.0,0.0,75,0.00,,---,0.00,VWS V14.01,2013-02-04 23:22:00,
2013-02-04 18:27:00,21.0,14.4,29.84,SSE,156,0.0,0.0,75,0.00,,---,0.00,VWS V14.01,2013-02-04 23:27:00,
2013-02-04 18:32:00,21.0,14.4,29.84,SSE,156,0.0,0.0,75,0.00,,---,0.00,VWS V14.01,2013-02-04 23:32:00,
2013-02-04 18:37:00,21.0,14.4,29.84,SSE,156,0.0,0.0,75,0.00,,---,0.00,VWS V14.01,2013-02-04 23:37:00,
2013-02-04 18:42:00,21.0,14.4,29.84,SSE,156,0.0,0.0,75,0.00,,---,0.00,VWS V14.01,2013-02-04 23:42:00,
2013-02-04 18:47:00,21.0,14.4,29.84,SSE,156,0.0,0.0,75,0.00,,---,0.00,VWS V14.01,2013-02-04 23:47:00,
2013-02-04 18:52:00,21.0,14.4,29.87,SSE,156,0.0,0.0,75,0.00,,---,0.00,VWS V14.01,2013-02-04 23:52:00,
2013-02-04 18:58:00,21.0,14.4,29.87,SSE,156,0.0,0.0,75,0.00,,---,0.00,VWS V14.01,2013-02-04 23:58:00,
2013-02-04 19:03:00,20.8,14.5,29.87,SSE,155,0.0,0.0,76,0.00,,---,0.00,VWS V14.01,2013-02-05 00:03:00,
2013-02-04 19:08:00,20.8,14.5,29.87,SSE,155,4.5,5.4,76,0.00,,---,0.00,VWS V14.01,2013-02-05 00:08:00,
2013-02-04 19:13:00,20.7,14.3,29.87,SSE,154,0.0,0.0,76,0.00,,---,0.00,VWS V14.01,2013-02-05 00:13:00,
2013-02-04 19:18:00,20.5,14.1,29.87,SSE,152,5.4,5.4,76,0.00,,---,0.00,VWS V14.01,2013-02-05 00:18:00,
2013-02-04 19:23:00,20.3,14.0,29.87,SSE,152,4.5,4.5,76,0.00,,---,0.00,VWS V14.01,2013-02-05 00:23:00,
2013-02-04 19:28:00,20.3,14.0,29.87,SSE,152,0.0,0.0,76,0.00,,---,0.00,VWS V14.01,2013-02-05 00:28:00,
2013-02-04 19:33:00,20.1,14.1,29.87,East,91,5.4,6.3,77,0.00,,---,0.00,VWS V14.01,2013-02-05 00:33:00,
2013-02-04 19:38:00,20.1,14.1,29.87,East,80,4.5,6.3,77,0.00,,---,0.00,VWS V14.01,2013-02-05 00:38:00,
2013-02-04 19:43:00,19.9,13.9,29.87,East,81,0.0,0.0,77,0.00,,---,0.00,VWS V14.01,2013-02-05 00:43:00,
2013-02-04 19:48:00,19.9,13.9,29.87,East,81,0.0,0.0,77,0.00,,---,0.00,VWS V14.01,2013-02-05 00:48:00,
2013-02-04 19:53:00,19.8,13.7,29.87,East,81,0.0,0.0,77,0.00,,---,0.00,VWS V14.01,2013-02-05 00:53:00,
2013-02-04 19:58:00,19.8,13.7,29.87,East,81,0.0,0.0,77,0.00,,---,0.00,VWS V14.01,2013-02-05 00:58:00,
2013-02-04 20:03:00,19.8,13.7,29.87,East,81,0.0,0.0,77,0.00,,---,0.00,VWS V14.01,2013-02-05 01:03:00,
2013-02-04 20:08:00,19.8,13.7,29.87,East,81,0.0,0.0,77,0.00,,---,0.00,VWS V14.01,2013-02-05 01:08:00,
2013-02-04 20:13:00,19.8,13.7,29.87,East,82,0.0,0.0,77,0.00,,---,0.00,VWS V14.01,2013-02-05 01:13:00,
2013-02-04 20:18:00,19.8,14.0,29.87,East,94,0.0,0.0,78,0.00,,---,0.00,VWS V14.01,2013-02-05 01:18:00,
2013-02-04 20:24:00,19.6,13.9,29.87,East,94,0.0,0.0,78,0.00,,---,0.00,VWS V14.01,2013-02-05 01:24:00,
2013-02-04 20:28:00,19.6,13.9,29.87,East,94,0.0,0.0,78,0.00,,---,0.00,VWS V14.01,2013-02-05 01:28:00,
2013-02-04 20:34:00,19.6,13.9,29.87,East,94,0.0,0.0,78,0.00,,---,0.00,VWS V14.01,2013-02-05 01:34:00,
2013-02-04 20:39:00,19.4,13.7,29.90,East,94,0.0,0.0,78,0.00,,---,0.00,VWS V14.01,2013-02-05 01:39:00,
2013-02-04 20:44:00,19.4,13.7,29.90,East,94,0.0,0.0,78,0.00,,---,0.00,VWS V14.01,2013-02-05 01:44:00,
2013-02-04 20:49:00,19.4,13.7,29.90,East,94,0.0,0.0,78,0.00,,---,0.00,VWS V14.01,2013-02-05 01:49:00,
2013-02-04 20:54:00,19.4,13.7,29.90,East,94,0.0,0.0,78,0.00,,---,0.00,VWS V14.01,2013-02-05 01:54:00,
2013-02-04 20:59:00,19.4,13.7,29.90,East,94,0.0,0.0,78,0.00,,---,0.00,VWS V14.01,2013-02-05 01:59:00,
2013-02-04 21:04:00,19.4,13.7,29.90,East,94,0.0,0.0,78,0.00,,---,0.00,VWS V14.01,2013-02-05 02:04:00,
2013-02-04 21:09:00,19.2,13.5,29.90,East,81,0.0,0.0,78,0.00,,---,0.00,VWS V14.01,2013-02-05 02:09:00,
2013-02-04 21:14:00,19.2,13.5,29.90,East,81,0.0,0.0,78,0.00,,---,0.00,VWS V14.01,2013-02-05 02:14:00,
2013-02-04 21:19:00,19.2,13.5,29.90,East,81,0.0,0.0,78,0.00,,---,0.00,VWS V14.01,2013-02-05 02:19:00,
2013-02-04 21:24:00,19.2,13.5,29.90,East,81,0.0,0.0,78,0.00,,---,0.00,VWS V14.01,2013-02-05 02:24:00,
2013-02-04 21:29:00,19.2,13.5,29.90,East,81,0.0,0.0,78,0.00,,---,0.00,VWS V14.01,2013-02-05 02:29:00,
2013-02-04 21:34:00,19.2,13.8,29.90,East,81,0.0,0.0,79,0.00,,---,0.00,VWS V14.01,2013-02-05 02:34:00,
2013-02-04 21:39:00,19.0,13.6,29.90,East,82,0.0,0.0,79,0.00,,---,0.00,VWS V14.01,2013-02-05 02:39:00,
2013-02-04 21:44:00,19.0,13.6,29.90,East,82,0.0,0.0,79,0.00,,---,0.00,VWS V14.01,2013-02-05 02:44:00,
2013-02-04 21:49:00,18.9,13.4,29.90,East,82,0.0,0.0,79,0.00,,---,0.00,VWS V14.01,2013-02-05 02:49:00,
2013-02-04 21:54:00,18.7,13.0,29.90,East,81,0.0,0.0,78,0.00,,---,0.00,VWS V14.01,2013-02-05 02:54:00,
2013-02-04 21:59:00,18.7,13.0,29.90,East,81,0.0,0.0,78,0.00,,---,0.00,VWS V14.01,2013-02-05 02:59:00,
2013-02-04 22:05:00,18.5,12.8,29.90,East,81,0.0,0.0,78,0.00,,---,0.00,VWS V14.01,2013-02-05 03:05:00,
2013-02-04 22:10:00,18.5,12.8,29.90,East,82,0.0,0.0,78,0.00,,---,0.00,VWS V14.01,2013-02-05 03:10:00,
2013-02-04 22:15:00,18.3,12.6,29.90,East,81,0.0,0.0,78,0.00,,---,0.00,VWS V14.01,2013-02-05 03:15:00,
2013-02-04 22:20:00,18.1,12.4,29.90,East,81,0.0,0.0,78,0.00,,---,0.00,VWS V14.01,2013-02-05 03:20:00,
2013-02-04 22:25:00,18.1,12.7,29.90,East,81,0.0,0.0,79,0.00,,---,0.00,VWS V14.01,2013-02-05 03:25:00,
2013-02-04 22:30:00,18.1,12.7,29.90,East,81,0.0,0.0,79,0.00,,---,0.00,VWS V14.01,2013-02-05 03:30:00,
2013-02-04 22:35:00,18.0,12.6,29.90,East,81,0.0,0.0,79,0.00,,---,0.00,VWS V14.01,2013-02-05 03:35:00,
2013-02-04 22:40:00,18.0,12.6,29.87,East,82,0.0,0.0,79,0.00,,---,0.00,VWS V14.01,2013-02-05 03:40:00,
2013-02-04 22:45:00,17.8,12.4,29.87,East,82,0.0,0.0,79,0.00,,---,0.00,VWS V14.01,2013-02-05 03:45:00,
2013-02-04 22:50:00,17.8,12.4,29.87,East,81,0.0,0.0,79,0.00,,---,0.00,VWS V14.01,2013-02-05 03:50:00,
2013-02-04 22:55:00,17.8,12.4,29.87,East,82,0.0,0.0,79,0.00,,---,0.00,VWS V14.01,2013-02-05 03:55:00,
2013-02-04 23:00:00,17.8,12.4,29.87,East,81,0.0,0.0,79,0.00,,---,0.00,VWS V14.01,2013-02-05 04:00:00,
2013-02-04 23:05:00,17.8,12.4,29.87,East,81,0.0,0.0,79,0.00,,---,0.00,VWS V14.01,2013-02-05 04:05:00,
2013-02-04 23:10:00,17.8,12.4,29.87,East,81,0.0,0.0,79,0.00,,---,0.00,VWS V14.01,2013-02-05 04:10:00,
2013-02-04 23:15:00,17.6,12.2,29.87,East,81,0.0,0.0,79,0.00,,---,0.00,VWS V14.01,2013-02-05 04:15:00,
2013-02-04 23:20:00,17.6,12.2,29.87,East,82,0.0,0.0,79,0.00,,---,0.00,VWS V14.01,2013-02-05 04:20:00,
2013-02-04 23:25:00,17.6,12.2,29.87,East,82,0.0,0.0,79,0.00,,---,0.00,VWS V14.01,2013-02-05 04:25:00,
2013-02-04 23:30:00,17.6,12.2,29.87,East,81,0.0,0.0,79,0.00,,---,0.00,VWS V14.01,2013-02-05 04:30:00,
2013-02-04 23:35:00,17.6,12.5,29.87,East,81,0.0,0.0,80,0.00,,---,0.00,VWS V14.01,2013-02-05 04:35:00,
2013-02-04 23:40:00,17.6,12.5,29.90,East,82,0.0,0.0,80,0.00,,---,0.00,VWS V14.01,2013-02-05 04:40:00,
2013-02-04 23:45:00,17.6,12.5,29.90,East,81,0.0,0.0,80,0.00,,---,0.00,VWS V14.01,2013-02-05 04:45:00,
2013-02-04 23:50:00,17.8,12.4,29.90,East,81,0.0,0.0,79,0.00,,---,0.00,VWS V14.01,2013-02-05 04:50:00,
2013-02-04 23:55:00,17.8,12.7,29.90,East,82,0.0,0.0,80,0.00,,---,0.00,VWS V14.01,2013-02-05 04:55:00,